createdAt,value
2017-06-14T00:00:24.463Z,44.73
2017-06-14T00:01:33.765Z,44.73
2017-06-14T00:02:43.087Z,45.03
2017-06-14T00:03:52.701Z,45
2017-06-14T00:05:02.639Z,45.1
2017-06-14T00:06:12.565Z,45.29
2017-06-14T00:07:22.473Z,45.39
2017-06-14T00:08:32.269Z,45.48
2017-06-14T00:09:42.521Z,45.39
2017-06-14T00:10:52.827Z,45.97
2017-06-14T00:12:03.052Z,45.97
2017-06-14T00:13:13.013Z,45.77
2017-06-14T00:14:22.941Z,45.68
2017-06-14T00:15:32.891Z,45.58
2017-06-14T00:16:42.858Z,45.87
2017-06-14T00:17:52.798Z,45.77
2017-06-14T00:19:02.734Z,45.97
2017-06-14T00:20:12.358Z,45.39
2017-06-14T00:21:21.668Z,45.77
2017-06-14T00:22:31.603Z,45.58
2017-06-14T00:23:41.219Z,45.48
2017-06-14T00:24:50.845Z,45.68
2017-06-14T00:26:00.625Z,45.58
2017-06-14T00:27:10.550Z,45.58
2017-06-14T00:28:20.495Z,45.65
2017-06-14T00:29:30.434Z,45.94
2017-06-14T00:30:40.082Z,45.84
2017-06-14T00:31:50.180Z,45.56
2017-06-14T00:33:00.094Z,45.84
2017-06-14T00:34:10.008Z,46.14
2017-06-14T00:35:19.612Z,46.42
2017-06-14T00:36:29.233Z,46.23
2017-06-14T00:37:38.636Z,46.33
2017-06-14T00:38:47.938Z,46.14
2017-06-14T00:39:58.165Z,46.23
2017-06-14T00:41:07.784Z,46.04
2017-06-14T00:42:17.704Z,46.33
2017-06-14T00:43:27.763Z,46.23
2017-06-14T00:44:37.681Z,46.42
2017-06-14T00:45:47.283Z,46.33
2017-06-14T00:46:57.529Z,45.94
2017-06-14T00:48:07.456Z,46.14
2017-06-14T00:49:17.389Z,45.94
2017-06-14T00:50:27.611Z,46.23
2017-06-14T00:51:37.545Z,46.52
2017-06-14T00:52:47.466Z,46.14
2017-06-14T00:53:57.063Z,46.14
2017-06-14T00:55:06.775Z,46.23
2017-06-14T00:56:16.419Z,46.14
2017-06-14T00:57:26.336Z,45.84
2017-06-14T00:58:35.959Z,45.56
2017-06-14T00:59:46.204Z,45.94
2017-06-14T01:00:55.668Z,45.84
2017-06-14T01:02:05.595Z,46.04
2017-06-14T01:03:15.834Z,46.14
2017-06-14T01:04:26.073Z,46.52
2017-06-14T01:05:36.312Z,46.33
2017-06-14T01:06:46.394Z,46.14
2017-06-14T01:07:56.306Z,46.23
2017-06-14T01:09:05.005Z,46.33
2017-06-14T01:10:14.649Z,46.14
2017-06-14T01:11:23.961Z,45.84
2017-06-14T01:12:33.888Z,46.04
2017-06-14T01:13:43.822Z,45.84
2017-06-14T01:14:53.445Z,46.14
2017-06-14T01:16:03.053Z,46.14
2017-06-14T01:17:12.977Z,46.14
2017-06-14T01:18:23.209Z,46.23
2017-06-14T01:19:33.145Z,46.42
2017-06-14T01:20:43.424Z,46.33
2017-06-14T01:21:53.370Z,46.14
2017-06-14T01:23:03.616Z,46.33
2017-06-14T01:24:13.904Z,46.42
2017-06-14T01:25:24.152Z,46.33
2017-06-14T01:26:34.385Z,46.33
2017-06-14T01:27:44.002Z,46.52
2017-06-14T01:28:53.946Z,46.33
2017-06-14T01:30:04.233Z,46.23
2017-06-14T01:31:14.447Z,46.23
2017-06-14T01:32:24.056Z,46.33
2017-06-14T01:33:34.006Z,46.42
2017-06-14T01:34:43.324Z,46.33
2017-06-14T01:35:53.434Z,46.33
2017-06-14T01:37:03.061Z,46.23
2017-06-14T01:38:12.673Z,46.33
2017-06-14T01:39:22.009Z,46.33
2017-06-14T01:40:31.952Z,46.23
2017-06-14T01:41:42.012Z,46.52
2017-06-14T01:42:51.940Z,46.62
2017-06-14T01:44:01.275Z,46.52
2017-06-14T01:45:11.499Z,46.71
2017-06-14T01:46:21.399Z,46.52
2017-06-14T01:47:31.325Z,47
2017-06-14T01:48:41.247Z,46.98
2017-06-14T01:49:51.164Z,47.08
2017-06-14T01:51:01.416Z,47.27
2017-06-14T01:52:11.351Z,47.08
2017-06-14T01:53:21.336Z,47.08
2017-06-14T01:54:31.256Z,46.88
2017-06-14T01:55:41.181Z,47.17
2017-06-14T01:56:50.827Z,47.36
2017-06-14T01:58:01.052Z,47.36
2017-06-14T01:59:11.163Z,47.27
2017-06-14T02:00:20.490Z,47.17
2017-06-14T02:01:30.478Z,47.27
2017-06-14T02:02:40.154Z,47.17
2017-06-14T02:03:50.120Z,46.98
2017-06-14T02:05:00.416Z,47.08
2017-06-14T02:06:10.652Z,47.27
2017-06-14T02:07:20.899Z,47.08
2017-06-14T02:08:30.512Z,47.08
2017-06-14T02:09:40.753Z,47.36
2017-06-14T02:10:51.146Z,47.27
2017-06-14T02:12:01.400Z,47.56
2017-06-14T02:13:11.342Z,47.65
2017-06-14T02:14:21.288Z,47.46
2017-06-14T02:15:30.908Z,47.85
2017-06-14T02:16:40.842Z,48.23
2017-06-14T02:17:50.776Z,48.23
2017-06-14T02:19:00.711Z,48.13
2017-06-14T02:20:10.620Z,48.23
2017-06-14T02:21:20.308Z,48.13
2017-06-14T02:22:30.532Z,47.94
2017-06-14T02:23:40.441Z,47.94
2017-06-14T02:24:50.743Z,48.33
2017-06-14T02:25:59.744Z,47.75
2017-06-14T02:27:09.513Z,47.75
2017-06-14T02:28:18.901Z,47.65
2017-06-14T02:29:28.531Z,47.65
2017-06-14T02:30:38.772Z,48.33
2017-06-14T02:31:48.706Z,48.23
2017-06-14T02:32:58.330Z,48.33
2017-06-14T02:34:08.564Z,48.23
2017-06-14T02:35:18.501Z,48.33
2017-06-14T02:36:28.709Z,48.03
2017-06-14T02:37:38.319Z,48.23
2017-06-14T02:38:48.399Z,48.33
2017-06-14T02:39:58.302Z,47.94
2017-06-14T02:41:08.525Z,48.23
2017-06-14T02:42:18.430Z,48.33
2017-06-14T02:43:28.370Z,48.23
2017-06-14T02:44:38.385Z,48.03
2017-06-14T02:45:48.290Z,47.94
2017-06-14T02:46:58.216Z,48.13
2017-06-14T02:48:08.132Z,48.33
2017-06-14T02:49:18.344Z,48.23
2017-06-14T02:50:28.622Z,48.23
2017-06-14T02:51:38.844Z,48.43
2017-06-14T02:52:48.448Z,48.43
2017-06-14T02:53:58.369Z,48.52
2017-06-14T02:55:08.619Z,48.11
2017-06-14T02:56:18.711Z,48.49
2017-06-14T02:57:28.639Z,48.4
2017-06-14T02:58:38.273Z,48.52
2017-06-14T02:59:47.594Z,48.43
2017-06-14T03:00:57.517Z,48.13
2017-06-14T03:02:07.295Z,48.23
2017-06-14T03:03:17.533Z,48.59
2017-06-14T03:04:27.156Z,48.43
2017-06-14T03:05:37.070Z,48.52
2017-06-14T03:06:47.352Z,48.33
2017-06-14T03:07:56.805Z,48.43
2017-06-14T03:09:06.721Z,48.3
2017-06-14T03:10:16.655Z,48.97
2017-06-14T03:11:26.889Z,48.4
2017-06-14T03:12:37.123Z,48.69
2017-06-14T03:13:46.886Z,48.88
2017-06-14T03:14:56.497Z,48.79
2017-06-14T03:16:05.487Z,48.79
2017-06-14T03:17:15.396Z,48.4
2017-06-14T03:18:25.616Z,48.43
2017-06-14T03:19:35.330Z,48.49
2017-06-14T03:20:45.263Z,48.43
2017-06-14T03:21:54.896Z,48.23
2017-06-14T03:23:04.834Z,48.33
2017-06-14T03:24:14.754Z,48.33
2017-06-14T03:25:24.523Z,48.03
2017-06-14T03:26:34.455Z,47.94
2017-06-14T03:27:44.381Z,48.13
2017-06-14T03:28:54.331Z,48.23
2017-06-14T03:30:04.588Z,47.94
2017-06-14T03:31:14.520Z,48.03
2017-06-14T03:32:24.145Z,48.13
2017-06-14T03:33:33.769Z,47.94
2017-06-14T03:34:43.718Z,47.94
2017-06-14T03:35:53.661Z,48.33
2017-06-14T03:37:03.746Z,48.13
2017-06-14T03:38:13.390Z,48.33
2017-06-14T03:39:23.632Z,48.61
2017-06-14T03:40:33.259Z,48.9
2017-06-14T03:41:43.488Z,48.81
2017-06-14T03:42:53.426Z,48.59
2017-06-14T03:44:03.668Z,48.4
2017-06-14T03:45:13.309Z,48.61
2017-06-14T03:46:23.250Z,48.59
2017-06-14T03:47:33.489Z,48.69
2017-06-14T03:48:43.704Z,48.69
2017-06-14T03:49:53.315Z,48.79
2017-06-14T03:51:02.936Z,48.88
2017-06-14T03:52:12.568Z,48.59
2017-06-14T03:53:22.805Z,49.07
2017-06-14T03:54:33.064Z,48.4
2017-06-14T03:55:43.003Z,48.59
2017-06-14T03:56:52.710Z,48.79
2017-06-14T03:58:02.329Z,48.49
2017-06-14T03:59:11.954Z,48.49
2017-06-14T04:00:21.591Z,49.17
2017-06-14T04:01:30.596Z,48.59
2017-06-14T04:02:40.527Z,48.3
2017-06-14T04:03:50.759Z,48.59
2017-06-14T04:05:00.078Z,48.59
2017-06-14T04:06:09.706Z,48.4
2017-06-14T04:07:19.634Z,48.59
2017-06-14T04:08:29.876Z,48.69
2017-06-14T04:09:40.127Z,48.69
2017-06-14T04:10:50.066Z,48.59
2017-06-14T04:11:59.732Z,49.17
2017-06-14T04:13:09.659Z,49.07
2017-06-14T04:14:19.268Z,49.55
2017-06-14T04:15:28.901Z,49.46
2017-06-14T04:16:38.521Z,49.55
2017-06-14T04:17:48.237Z,49.07
2017-06-14T04:18:58.464Z,49.07
2017-06-14T04:20:08.080Z,48.88
2017-06-14T04:21:18.000Z,49.07
2017-06-14T04:22:27.324Z,48.88
2017-06-14T04:23:37.706Z,48.79
2017-06-14T04:24:47.954Z,48.59
2017-06-14T04:25:57.572Z,48.69
2017-06-14T04:27:07.487Z,48.69
2017-06-14T04:28:17.445Z,48.59
2017-06-14T04:29:27.237Z,48.88
2017-06-14T04:30:37.452Z,48.59
2017-06-14T04:31:47.365Z,48.88
2017-06-14T04:32:57.595Z,48.79
2017-06-14T04:34:07.221Z,48.71
2017-06-14T04:35:17.296Z,48.59
2017-06-14T04:36:26.592Z,48.4
2017-06-14T04:37:36.508Z,48.33
2017-06-14T04:38:46.116Z,48.49
2017-06-14T04:39:56.349Z,48.69
2017-06-14T04:41:06.594Z,48.71
2017-06-14T04:42:15.906Z,48.71
2017-06-14T04:43:25.844Z,48.71
2017-06-14T04:44:36.085Z,48.61
2017-06-14T04:45:46.021Z,48.61
2017-06-14T04:46:55.956Z,48.52
2017-06-14T04:48:05.899Z,48.9
2017-06-14T04:49:15.538Z,48.61
2017-06-14T04:50:25.452Z,49
2017-06-14T04:51:35.687Z,48.52
2017-06-14T04:52:45.713Z,48.52
2017-06-14T04:53:55.328Z,48.61
2017-06-14T04:55:04.648Z,48.43
2017-06-14T04:56:14.603Z,48.43
2017-06-14T04:57:24.854Z,48.43
2017-06-14T04:58:34.555Z,48.52
2017-06-14T04:59:44.182Z,48.71
2017-06-14T05:00:54.421Z,48.52
2017-06-14T05:02:04.355Z,48.52
2017-06-14T05:03:18.858Z,48.33
2017-06-14T05:04:28.935Z,48.71
2017-06-14T05:05:38.882Z,48.61
2017-06-14T05:06:48.513Z,48.61
2017-06-14T05:07:58.760Z,48.81
2017-06-14T05:09:08.682Z,48.33
2017-06-14T05:10:18.153Z,48.43
2017-06-14T05:11:28.375Z,48.61
2017-06-14T05:12:38.317Z,48.33
2017-06-14T05:13:48.262Z,48.52
2017-06-14T05:14:58.246Z,48.52
2017-06-14T05:16:08.233Z,48.23
2017-06-14T05:17:18.180Z,48.03
2017-06-14T05:18:27.530Z,48.03
2017-06-14T05:19:37.459Z,47.77
2017-06-14T05:20:47.095Z,47.58
2017-06-14T05:21:56.846Z,47.29
2017-06-14T05:23:06.491Z,47.19
2017-06-14T05:24:16.463Z,47.19
2017-06-14T05:25:26.407Z,47.12
2017-06-14T05:26:36.042Z,47.22
2017-06-14T05:27:46.419Z,47.31
2017-06-14T05:28:56.410Z,46.55
2017-06-14T05:30:06.051Z,46.25
2017-06-14T05:31:15.997Z,46.55
2017-06-14T05:32:26.259Z,46.35
2017-06-14T05:33:36.322Z,45.99
2017-06-14T05:34:46.587Z,45.79
2017-06-14T05:35:56.539Z,45.51
2017-06-14T05:37:06.170Z,45.89
2017-06-14T05:38:15.806Z,45.24
2017-06-14T05:39:26.038Z,45.14
2017-06-14T05:40:35.672Z,44.95
2017-06-14T05:41:45.306Z,44.66
2017-06-14T05:42:55.558Z,44.76
2017-06-14T05:44:05.779Z,44.49
2017-06-14T05:45:15.723Z,44.29
2017-06-14T05:46:25.639Z,44.2
2017-06-14T05:47:35.259Z,44.1
2017-06-14T05:48:45.212Z,44.2
2017-06-14T05:49:55.470Z,44.29
2017-06-14T05:51:05.553Z,44.1
2017-06-14T05:52:15.194Z,44.01
2017-06-14T05:53:25.107Z,44.2
2017-06-14T05:54:34.727Z,44.12
2017-06-14T05:55:44.981Z,44.03
2017-06-14T05:56:54.788Z,43.84
2017-06-14T05:58:05.049Z,43.93
2017-06-14T05:59:15.321Z,43.84
2017-06-14T06:00:25.609Z,43.64
2017-06-14T06:01:36.398Z,43.64
2017-06-14T06:02:46.587Z,43.74
2017-06-14T06:03:57.129Z,43.57
2017-06-14T06:05:08.123Z,43.47
2017-06-14T06:06:18.948Z,43.37
2017-06-14T06:07:28.908Z,42.99
2017-06-14T06:08:38.520Z,43.18
2017-06-14T06:09:47.844Z,43.18
2017-06-14T06:10:58.078Z,42.79
2017-06-14T06:12:07.699Z,42.62
2017-06-14T06:13:17.309Z,42.62
2017-06-14T06:14:27.329Z,42.43
2017-06-14T06:15:36.941Z,42.04
2017-06-14T06:16:46.883Z,42.43
2017-06-14T06:17:57.521Z,42.35
2017-06-14T06:19:07.522Z,42.16
2017-06-14T06:20:18.673Z,42.07
2017-06-14T06:21:29.158Z,41.97
2017-06-14T06:22:39.121Z,42.35
2017-06-14T06:23:49.572Z,41.97
2017-06-14T06:24:59.598Z,41.97
2017-06-14T06:26:09.752Z,41.87
2017-06-14T06:27:20.236Z,41.99
2017-06-14T06:28:30.650Z,41.79
2017-06-14T06:29:40.653Z,41.79
2017-06-14T06:30:50.878Z,42.08
2017-06-14T06:32:00.807Z,41.6
2017-06-14T06:33:10.424Z,41.6
2017-06-14T06:34:20.375Z,41.31
2017-06-14T06:35:30.298Z,41.21
2017-06-14T06:36:40.230Z,41.11
2017-06-14T06:37:50.549Z,41.21
2017-06-14T06:39:00.461Z,41.11
2017-06-14T06:40:10.407Z,41.11
2017-06-14T06:41:20.330Z,41.14
2017-06-14T06:42:30.287Z,40.94
2017-06-14T06:43:40.513Z,40.75
2017-06-14T06:44:50.146Z,40.75
2017-06-14T06:46:00.371Z,40.86
2017-06-14T06:47:10.293Z,40.58
2017-06-14T06:48:20.513Z,40.28
2017-06-14T06:49:30.891Z,39.8
2017-06-14T06:50:40.503Z,39.41
2017-06-14T06:51:50.414Z,39.62
2017-06-14T06:53:00.643Z,39.24
2017-06-14T06:54:10.569Z,39.34
2017-06-14T06:55:20.817Z,39.53
2017-06-14T06:56:30.744Z,39.53
2017-06-14T06:57:40.061Z,39.34
2017-06-14T06:58:50.314Z,39.04
2017-06-14T07:00:00.544Z,38.85
2017-06-14T07:01:10.255Z,38.39
2017-06-14T07:02:20.186Z,37.82
2017-06-14T07:03:30.122Z,37.73
2017-06-14T07:04:40.050Z,37.16
2017-06-14T07:05:49.652Z,36.79
2017-06-14T07:06:59.427Z,36.11
2017-06-14T07:08:09.347Z,35.35
2017-06-14T07:09:18.652Z,35.37
2017-06-14T07:10:28.574Z,34.52
2017-06-14T07:11:38.803Z,34.42
2017-06-14T07:12:48.471Z,34.33
2017-06-14T07:13:58.073Z,34.06
2017-06-14T07:15:08.033Z,33.48
2017-06-14T07:16:17.945Z,33.29
2017-06-14T07:17:27.552Z,33.2
2017-06-14T07:18:37.823Z,32.82
2017-06-14T07:19:48.044Z,32.73
2017-06-14T07:20:57.661Z,32.92
2017-06-14T07:22:07.573Z,32.55
2017-06-14T07:23:17.533Z,32.65
2017-06-14T07:24:27.618Z,32.35
2017-06-14T07:25:37.540Z,32.16
2017-06-14T07:26:47.458Z,32.08
2017-06-14T07:27:57.370Z,31.98
2017-06-14T07:29:07.589Z,31.79
2017-06-14T07:30:17.342Z,31.49
2017-06-14T07:31:26.944Z,31.6
2017-06-14T07:32:35.936Z,31.33
2017-06-14T07:33:45.235Z,31.13
2017-06-14T07:34:55.142Z,30.74
2017-06-14T07:36:05.074Z,30.86
2017-06-14T07:37:14.687Z,30.86
2017-06-14T07:38:24.909Z,30.27
2017-06-14T07:39:35.136Z,30.19
2017-06-14T07:40:45.375Z,29.71
2017-06-14T07:41:55.761Z,29.32
2017-06-14T07:43:05.691Z,29.34
2017-06-14T07:44:15.599Z,29.04
2017-06-14T07:45:25.199Z,28.57
2017-06-14T07:46:34.800Z,28.29
2017-06-14T07:47:43.930Z,28.11
2017-06-14T07:48:54.176Z,27.91
2017-06-14T07:50:04.104Z,27.34
2017-06-14T07:51:14.010Z,27.06
2017-06-14T07:52:23.613Z,26.96
2017-06-14T07:53:33.369Z,26.68
2017-06-14T07:54:43.295Z,26.2
2017-06-14T07:55:53.513Z,26.2
2017-06-14T07:57:03.755Z,26.01
2017-06-14T07:58:13.677Z,25.83
2017-06-14T07:59:23.614Z,25.73
2017-06-14T08:00:33.854Z,25.54
2017-06-14T08:01:43.790Z,25.45
2017-06-14T08:02:53.732Z,25.17
2017-06-14T08:04:03.090Z,25.17
2017-06-14T08:05:12.858Z,25.17
2017-06-14T08:06:23.082Z,25.17
2017-06-14T08:07:33.001Z,25.08
2017-06-14T08:08:43.289Z,25.08
2017-06-14T08:09:53.190Z,24.59
2017-06-14T08:11:03.559Z,24.3
2017-06-14T08:12:13.772Z,24.51
2017-06-14T08:15:05.090Z,24.22
2017-06-14T08:16:15.470Z,24.32
2017-06-14T08:17:24.469Z,24.43
2017-06-14T08:18:34.389Z,24.04
2017-06-14T08:19:43.687Z,24.04
2017-06-14T08:20:53.900Z,23.94
2017-06-14T08:22:03.964Z,23.95
2017-06-14T08:23:13.565Z,23.95
2017-06-14T08:24:23.476Z,23.95
2017-06-14T08:25:33.388Z,23.95
2017-06-14T08:26:44.004Z,24.05
2017-06-14T08:27:54.529Z,23.76
2017-06-14T08:29:04.509Z,23.96
2017-06-14T08:30:14.445Z,24.06
2017-06-14T08:31:24.361Z,23.76
2017-06-14T08:32:34.597Z,23.96
2017-06-14T08:33:44.317Z,24.07
2017-06-14T08:34:53.611Z,23.77
2017-06-14T08:36:03.823Z,24.17
2017-06-14T08:37:13.735Z,23.97
2017-06-14T08:38:23.949Z,24.26
2017-06-14T08:39:33.611Z,25.23
2017-06-14T08:40:43.524Z,25.61
2017-06-14T08:41:53.134Z,26.19
2017-06-14T08:43:02.743Z,26.87
2017-06-14T08:44:12.045Z,27.62
2017-06-14T08:45:21.809Z,28.2
2017-06-14T08:46:31.424Z,28.29
2017-06-14T08:47:40.724Z,29.25
2017-06-14T08:48:50.635Z,29.44
2017-06-14T08:50:00.857Z,29.82
2017-06-14T08:51:10.769Z,30.39
2017-06-14T08:52:20.681Z,30.57
2017-06-14T08:53:30.298Z,31.24
2017-06-14T08:54:40.205Z,31.83
2017-06-14T08:55:50.155Z,32.01
2017-06-14T08:57:00.119Z,32.29
2017-06-14T08:58:09.729Z,32.56
2017-06-14T08:59:20.315Z,33.15
2017-06-14T09:00:29.612Z,33.33
2017-06-14T09:01:39.224Z,33.92
2017-06-14T09:02:49.305Z,33.51
2017-06-14T09:03:59.225Z,34.57
2017-06-14T09:05:09.437Z,34.77
2017-06-14T09:06:18.744Z,34.77
2017-06-14T09:07:28.043Z,34.65
2017-06-14T09:08:38.064Z,35.12
2017-06-14T09:09:47.693Z,35.51
2017-06-14T09:10:57.327Z,35.49
2017-06-14T09:12:06.638Z,35.69
2017-06-14T09:13:16.872Z,35.88
2017-06-14T09:14:26.935Z,36.25
2017-06-14T09:15:37.151Z,36.65
2017-06-14T09:16:47.415Z,36.63
2017-06-14T09:17:57.908Z,37.12
2017-06-14T09:19:08.638Z,37.12
2017-06-14T09:20:19.298Z,37.29
2017-06-14T09:21:29.207Z,37.19
2017-06-14T09:22:39.443Z,37.39
2017-06-14T09:23:49.363Z,37.56
2017-06-14T09:24:58.672Z,37.66
2017-06-14T09:26:09.045Z,37.66
2017-06-14T09:27:19.267Z,38.05
2017-06-14T09:28:29.481Z,37.93
2017-06-14T09:29:39.083Z,38.13
2017-06-14T09:30:49.032Z,38.03
2017-06-14T09:31:59.060Z,37.93
2017-06-14T09:33:08.684Z,38.23
2017-06-14T09:34:18.922Z,37.93
2017-06-14T09:35:28.534Z,37.92
2017-06-14T09:36:38.749Z,38.01
2017-06-14T09:37:48.814Z,38.01
2017-06-14T09:38:58.441Z,38.21
2017-06-14T09:40:08.056Z,38.31
2017-06-14T09:41:18.283Z,38.5
2017-06-14T09:42:27.911Z,38.6
2017-06-14T09:43:37.987Z,38.6
2017-06-14T09:44:47.904Z,38.77
2017-06-14T09:45:57.833Z,38.67
2017-06-14T09:47:07.750Z,38.57
2017-06-14T09:48:17.972Z,38.48
2017-06-14T09:49:28.045Z,38.48
2017-06-14T09:50:37.658Z,38.57
2017-06-14T09:51:47.268Z,38.48
2017-06-14T09:52:57.196Z,38.67
2017-06-14T09:54:06.840Z,38.67
2017-06-14T09:55:16.896Z,38.39
2017-06-14T09:56:27.122Z,38.57
2017-06-14T09:57:37.053Z,38.67
2017-06-14T09:58:47.286Z,38.77
2017-06-14T09:59:56.606Z,38.85
2017-06-14T10:01:06.262Z,38.65
2017-06-14T10:02:15.860Z,38.85
2017-06-14T10:03:25.768Z,38.75
2017-06-14T10:04:35.997Z,38.85
2017-06-14T10:05:46.209Z,38.85
2017-06-14T10:06:55.508Z,38.95
2017-06-14T10:08:05.423Z,38.95
2017-06-14T10:09:14.431Z,38.65
2017-06-14T10:10:24.344Z,38.85
2017-06-14T10:11:34.567Z,38.95
2017-06-14T10:12:45.131Z,38.95
2017-06-14T10:13:55.349Z,38.95
2017-06-14T10:15:04.992Z,38.85
2017-06-14T10:16:15.280Z,39.04
2017-06-14T10:17:24.888Z,38.93
2017-06-14T10:18:34.838Z,39.03
2017-06-14T10:19:44.750Z,39.04
2017-06-14T10:20:54.351Z,39.04
2017-06-14T10:22:04.275Z,39.03
2017-06-14T10:23:14.202Z,39.03
2017-06-14T10:24:23.506Z,38.85
2017-06-14T10:25:33.734Z,39.03
2017-06-14T10:26:43.351Z,39.03
2017-06-14T10:27:53.260Z,39.03
2017-06-14T10:29:03.496Z,39.03
2017-06-14T10:30:12.904Z,39.12
2017-06-14T10:31:22.826Z,38.83
2017-06-14T10:32:32.452Z,38.83
2017-06-14T10:33:42.664Z,39.03
2017-06-14T10:34:52.581Z,38.73
2017-06-14T10:36:02.811Z,39.03
2017-06-14T10:37:12.732Z,38.83
2017-06-14T10:38:22.662Z,38.83
2017-06-14T10:39:32.576Z,38.73
2017-06-14T10:40:42.493Z,38.73
2017-06-14T10:41:52.458Z,38.73
2017-06-14T10:43:02.376Z,38.73
2017-06-14T10:44:12.294Z,38.83
2017-06-14T10:45:21.930Z,38.73
2017-06-14T10:46:31.838Z,38.73
2017-06-14T10:47:41.910Z,38.73
2017-06-14T10:48:51.847Z,38.93
2017-06-14T10:50:01.768Z,38.73
2017-06-14T10:51:11.406Z,38.54
2017-06-14T10:52:21.627Z,38.83
2017-06-14T10:53:31.543Z,38.73
2017-06-14T10:54:41.458Z,38.73
2017-06-14T10:55:51.399Z,38.64
2017-06-14T10:57:01.010Z,38.64
2017-06-14T10:58:10.619Z,38.64
2017-06-14T10:59:20.554Z,38.64
2017-06-14T11:00:30.790Z,38.34
2017-06-14T11:01:41.019Z,38.64
2017-06-14T11:02:51.243Z,38.25
2017-06-14T11:04:00.852Z,38.44
2017-06-14T11:05:11.098Z,38.44
2017-06-14T11:06:21.021Z,38.44
2017-06-14T11:07:30.631Z,38.54
2017-06-14T11:08:40.863Z,38.44
2017-06-14T11:09:50.162Z,38.44
2017-06-14T11:11:00.590Z,38.44
2017-06-14T11:12:10.532Z,38.54
2017-06-14T11:13:19.843Z,38.44
2017-06-14T11:14:29.758Z,38.44
2017-06-14T11:15:39.683Z,38.32
2017-06-14T11:16:49.639Z,38.34
2017-06-14T11:17:59.559Z,38.54
2017-06-14T11:19:09.469Z,38.44
2017-06-14T11:20:19.110Z,38.54
2017-06-14T11:21:28.433Z,38.52
2017-06-14T11:22:38.192Z,38.71
2017-06-14T11:23:48.106Z,38.42
2017-06-14T11:24:58.022Z,38.42
2017-06-14T11:26:07.325Z,38.52
2017-06-14T11:27:16.949Z,38.52
2017-06-14T11:28:26.969Z,38.42
2017-06-14T11:29:36.574Z,38.52
2017-06-14T11:30:45.885Z,38.42
2017-06-14T11:31:56.141Z,38.42
2017-06-14T11:33:06.397Z,38.42
2017-06-14T11:34:15.794Z,38.54
2017-06-14T11:35:25.395Z,38.42
2017-06-14T11:36:35.319Z,38.42
2017-06-14T11:37:45.244Z,38.52
2017-06-14T11:38:54.960Z,38.52
2017-06-14T11:40:06.093Z,38.52
2017-06-14T11:41:16.337Z,38.52
2017-06-14T11:42:26.621Z,38.52
2017-06-14T11:43:36.859Z,38.32
2017-06-14T11:44:47.081Z,38.71
2017-06-14T11:45:57.377Z,38.52
2017-06-14T11:47:07.317Z,38.52
2017-06-14T11:48:17.542Z,38.42
2017-06-14T11:49:27.493Z,38.54
2017-06-14T11:50:37.464Z,38.52
2017-06-14T11:51:47.159Z,38.42
2017-06-14T11:52:56.769Z,38.52
2017-06-14T11:54:06.985Z,38.62
2017-06-14T11:55:16.605Z,38.52
2017-06-14T11:56:26.518Z,38.42
2017-06-14T11:57:36.438Z,38.52
2017-06-14T11:58:46.058Z,38.52
2017-06-14T11:59:55.962Z,38.52
2017-06-14T12:01:05.575Z,38.42
2017-06-14T12:02:15.185Z,38.52
2017-06-14T12:03:25.136Z,38.42
2017-06-14T12:04:35.046Z,38.54
2017-06-14T12:05:44.671Z,38.52
2017-06-14T12:06:54.906Z,38.42
2017-06-14T12:08:04.531Z,38.42
2017-06-14T12:09:13.538Z,38.42
2017-06-14T12:10:23.172Z,38.52
2017-06-14T12:11:33.085Z,38.42
2017-06-14T12:12:43.004Z,38.52
2017-06-14T12:13:52.635Z,38.52
2017-06-14T12:15:02.695Z,38.42
2017-06-14T12:16:12.016Z,38.54
2017-06-14T12:17:22.242Z,38.52
2017-06-14T12:18:32.485Z,38.62
2017-06-14T12:19:42.749Z,38.71
2017-06-14T12:20:52.217Z,38.62
2017-06-14T12:22:01.531Z,38.71
2017-06-14T12:23:11.167Z,38.52
2017-06-14T12:24:21.404Z,38.52
2017-06-14T12:25:31.635Z,38.52
2017-06-14T12:26:42.012Z,38.42
2017-06-14T12:27:52.230Z,38.62
2017-06-14T12:29:02.156Z,38.52
2017-06-14T12:30:11.781Z,38.42
2017-06-14T12:31:21.395Z,38.42
2017-06-14T12:32:31.459Z,38.52
2017-06-14T12:33:41.069Z,38.52
2017-06-14T12:34:50.671Z,38.62
2017-06-14T12:36:00.611Z,38.71
2017-06-14T12:37:10.535Z,38.62
2017-06-14T12:38:20.611Z,38.42
2017-06-14T12:39:29.909Z,38.52
2017-06-14T12:40:39.820Z,38.42
2017-06-14T12:41:49.416Z,38.52
2017-06-14T12:42:59.328Z,38.64
2017-06-14T12:44:09.235Z,38.52
2017-06-14T12:45:18.533Z,38.42
2017-06-14T12:46:28.431Z,38.32
2017-06-14T12:47:38.361Z,38.32
2017-06-14T12:48:48.270Z,38.52
2017-06-14T12:49:58.523Z,38.52
2017-06-14T12:51:08.738Z,38.42
2017-06-14T12:52:18.351Z,38.42
2017-06-14T12:53:28.586Z,38.52
2017-06-14T12:54:37.887Z,38.42
2017-06-14T12:55:47.640Z,38.52
2017-06-14T12:56:57.550Z,38.32
2017-06-14T12:58:07.158Z,38.62
2017-06-14T12:59:16.471Z,38.32
2017-06-14T13:00:26.380Z,38.62
2017-06-14T13:01:36.129Z,38.32
2017-06-14T13:02:45.423Z,38.71
2017-06-14T13:03:55.041Z,38.62
2017-06-14T13:05:04.950Z,38.42
2017-06-14T13:06:15.183Z,38.42
2017-06-14T13:07:24.791Z,38.52
2017-06-14T13:08:34.710Z,38.62
2017-06-14T13:09:44.311Z,38.52
2017-06-14T13:10:54.241Z,38.32
2017-06-14T13:12:04.149Z,38.42
2017-06-14T13:13:14.143Z,38.62
2017-06-14T13:14:23.815Z,38.71
2017-06-14T13:15:33.743Z,38.71
2017-06-14T13:16:43.670Z,38.62
2017-06-14T13:17:53.275Z,38.32
2017-06-14T13:19:03.250Z,38.81
2017-06-14T13:20:13.179Z,38.62
2017-06-14T13:21:23.399Z,38.62
2017-06-14T13:22:32.698Z,38.62
2017-06-14T13:23:42.910Z,38.42
2017-06-14T13:24:52.829Z,38.32
2017-06-14T13:26:02.755Z,38.42
2017-06-14T13:27:12.358Z,38.32
2017-06-14T13:28:21.956Z,38.52
2017-06-14T13:29:31.870Z,38.52
2017-06-14T13:30:41.926Z,38.52
2017-06-14T13:31:52.507Z,38.32
2017-06-14T13:33:02.434Z,38.71
2017-06-14T13:34:12.659Z,38.81
2017-06-14T13:35:22.582Z,38.81
2017-06-14T13:36:32.338Z,38.32
2017-06-14T13:37:42.250Z,38.42
2017-06-14T13:38:51.855Z,38.81
2017-06-14T13:40:01.458Z,38.32
2017-06-14T13:41:11.068Z,38.62
2017-06-14T13:42:21.023Z,38.32
2017-06-14T13:43:31.263Z,38.71
2017-06-14T13:44:40.559Z,38.81
2017-06-14T13:45:50.781Z,38.52
2017-06-14T13:47:00.396Z,38.71
2017-06-14T13:48:10.781Z,38.32
2017-06-14T13:49:20.706Z,38.71
2017-06-14T13:50:30.632Z,38.52
2017-06-14T13:51:40.236Z,38.71
2017-06-14T13:52:50.462Z,38.81
2017-06-14T13:54:00.208Z,38.71
2017-06-14T13:55:09.809Z,38.81
2017-06-14T13:56:19.713Z,38.52
2017-06-14T13:57:29.936Z,38.91
2017-06-14T13:58:39.543Z,38.71
2017-06-14T13:59:49.691Z,38.52
2017-06-14T14:00:59.296Z,38.52
2017-06-14T14:02:09.201Z,38.71
2017-06-14T14:03:19.105Z,38.52
2017-06-14T14:04:29.323Z,38.42
2017-06-14T14:05:39.082Z,38.52
2017-06-14T14:06:48.105Z,38.52
2017-06-14T14:07:58.319Z,38.62
2017-06-14T14:09:07.918Z,38.81
2017-06-14T14:10:18.167Z,38.52
2017-06-14T14:11:28.177Z,38.52
2017-06-14T14:12:37.782Z,38.52
2017-06-14T14:13:47.711Z,38.81
2017-06-14T14:14:57.628Z,38.91
2017-06-14T14:16:06.938Z,38.52
2017-06-14T14:17:16.693Z,38.62
2017-06-14T14:18:26.947Z,38.42
2017-06-14T14:19:36.548Z,38.81
2017-06-14T14:20:46.457Z,38.62
2017-06-14T14:21:56.673Z,38.52
2017-06-14T14:23:06.991Z,38.52
2017-06-14T14:24:17.227Z,38.81
2017-06-14T14:25:27.154Z,38.52
2017-06-14T14:26:37.063Z,38.52
2017-06-14T14:27:47.298Z,38.81
2017-06-14T14:28:57.377Z,38.52
2017-06-14T14:30:07.590Z,38.52
2017-06-14T14:31:17.199Z,38.81
2017-06-14T14:32:26.814Z,38.52
2017-06-14T14:33:36.737Z,38.81
2017-06-14T14:34:46.810Z,38.52
2017-06-14T14:35:56.443Z,38.71
2017-06-14T14:37:06.676Z,38.52
2017-06-14T14:38:16.592Z,38.42
2017-06-14T14:39:26.511Z,38.62
2017-06-14T14:40:36.514Z,38.62
2017-06-14T14:41:46.486Z,38.71
2017-06-14T14:42:56.696Z,38.32
2017-06-14T14:44:06.944Z,38.71
2017-06-14T14:45:16.854Z,38.42
2017-06-14T14:46:27.084Z,38.42
2017-06-14T14:47:37.015Z,38.42
2017-06-14T14:48:46.931Z,38.52
2017-06-14T14:49:56.838Z,38.32
2017-06-14T14:51:06.440Z,38.52
2017-06-14T14:52:16.502Z,38.42
2017-06-14T14:53:25.824Z,38.62
2017-06-14T14:54:35.454Z,38.52
2017-06-14T14:55:45.051Z,38.71
2017-06-14T14:56:55.276Z,38.52
2017-06-14T14:58:05.491Z,38.42
2017-06-14T14:59:15.709Z,38.81
2017-06-14T15:00:25.923Z,38.71
2017-06-14T15:01:35.840Z,38.52
2017-06-14T15:02:45.749Z,38.62